Game Lodge, South Dakota
Current Conditions -  °F | °C
As of 3:53 PM on Saturday 20 Dec 2014 (Local Time) from KCUT Reporting Station
Scattered Clouds Scattered Clouds  
Wind Chill: 37°   Ceiling: Unl
Heat Index: 37°   Visibility: 10mi
Dew Point: 22°   Wind: 3mph
Humidity: 54%   Direction: 250°WSW
Pressure: 29.87"   Gusts: NA
Location:  43.6653°N, 103.766°W
Report Text: KCUT 202253Z AUTO 25003KT 10SM SCT055 03/M06 A2987 RMK AO2 SLP127 T00281056
Loading
Personal Weather Stations






























Interactive Weather Map New forecast layout! Learn more

10-Day Weather Forecast

Advertisements
Track Severe Weather on mobile